createdAt,value
2023-10-08T00:01:49.510Z,20.02
2023-10-08T00:06:15.879Z,19.00
2023-10-08T00:10:42.528Z,20.40
2023-10-08T00:15:11.602Z,30.95
2023-10-08T00:19:39.088Z,27.35
2023-10-08T00:24:07.736Z,23.35
2023-10-08T00:28:33.177Z,27.50
2023-10-08T00:32:58.884Z,23.00
2023-10-08T00:37:27.990Z,20.33
2023-10-08T00:41:59.640Z,38.22
2023-10-08T00:46:32.049Z,23.35
2023-10-08T00:51:17.315Z,18.00
2023-10-08T00:55:47.786Z,19.40
2023-10-08T01:00:22.472Z,20.08
2023-10-08T01:04:47.721Z,17.50
2023-10-08T01:09:27.868Z,15.75
2023-10-08T01:13:55.691Z,19.27
2023-10-08T01:18:31.863Z,13.90
2023-10-08T01:22:58.335Z,19.90
2023-10-08T01:27:25.233Z,17.67
2023-10-08T01:31:50.682Z,15.95
2023-10-08T01:36:16.141Z,22.27
2023-10-08T01:40:44.511Z,12.77
2023-10-08T01:45:12.208Z,22.10
2023-10-08T01:49:40.130Z,19.27
2023-10-08T01:54:12.177Z,21.02
2023-10-08T01:58:38.172Z,19.67
2023-10-08T02:03:07.052Z,19.73
2023-10-08T02:07:32.176Z,25.05
2023-10-08T02:11:58.003Z,24.70
2023-10-08T02:16:23.703Z,29.27
2023-10-08T02:20:49.635Z,21.55
2023-10-08T02:25:15.286Z,19.05
2023-10-08T02:29:41.022Z,23.30
2023-10-08T02:34:10.100Z,18.08
2023-10-08T02:38:39.006Z,25.10
2023-10-08T02:43:09.114Z,17.67
2023-10-08T02:47:34.396Z,22.30
2023-10-08T02:51:59.664Z,25.42
2023-10-08T02:56:25.128Z,22.98
2023-10-08T03:00:50.928Z,29.45
2023-10-08T03:05:18.692Z,9.75
2023-10-08T03:09:44.053Z,8.02
2023-10-08T03:14:16.229Z,6.22
2023-10-08T03:18:51.109Z,8.02
2023-10-08T03:23:34.935Z,6.55
2023-10-08T03:28:00.672Z,7.18
2023-10-08T03:32:27.597Z,5.20
2023-10-08T03:37:00.725Z,6.78
2023-10-08T03:41:30.453Z,3.90
2023-10-08T03:46:00.283Z,1.83
2023-10-08T03:50:33.926Z,7.45
2023-10-08T03:55:28.289Z,2.03
2023-10-08T03:59:59.779Z,3.45
2023-10-08T04:04:45.191Z,1.80
2023-10-08T04:09:10.825Z,0.82
2023-10-08T04:13:45.480Z,1.83
2023-10-08T04:18:12.205Z,1.35
2023-10-08T04:22:38.020Z,3.35
2023-10-08T04:27:04.749Z,3.08
2023-10-08T04:31:47.736Z,1.85
2023-10-08T04:36:19.046Z,2.75
2023-10-08T04:40:52.258Z,0.93
2023-10-08T04:45:20.660Z,2.15
2023-10-08T04:49:46.797Z,1.05
2023-10-08T04:54:19.378Z,1.38
2023-10-08T05:03:16.477Z,0.80
2023-10-08T05:07:47.933Z,2.80
2023-10-08T05:12:31.724Z,0.75
2023-10-08T05:17:23.142Z,1.35
2023-10-08T05:22:06.906Z,1.90
2023-10-08T05:26:42.912Z,2.17
2023-10-08T05:31:23.000Z,2.53
2023-10-08T05:35:48.628Z,3.80
2023-10-08T05:40:34.038Z,1.55
2023-10-08T05:45:11.258Z,1.40
2023-10-08T05:49:36.752Z,0.93
2023-10-08T05:54:11.690Z,1.10
2023-10-08T05:58:46.993Z,3.33
2023-10-08T06:03:22.820Z,2.75
2023-10-08T06:07:56.891Z,1.08
2023-10-08T06:12:31.399Z,5.40
2023-10-08T06:17:17.196Z,3.28
2023-10-08T06:21:43.529Z,4.10
2023-10-08T06:26:12.488Z,1.67
2023-10-08T06:30:47.186Z,4.18
2023-10-08T06:35:19.419Z,3.10
2023-10-08T06:39:50.767Z,1.63
2023-10-08T06:44:16.502Z,3.70
2023-10-08T06:48:43.718Z,1.50
2023-10-08T06:53:09.083Z,1.67
2023-10-08T06:57:34.523Z,3.10
2023-10-08T07:02:00.180Z,2.60
2023-10-08T07:06:32.487Z,2.28
2023-10-08T07:11:00.570Z,2.35
2023-10-08T07:15:27.520Z,2.47
2023-10-08T07:19:54.502Z,3.08
2023-10-08T07:24:22.862Z,5.40
2023-10-08T07:28:48.364Z,1.40
2023-10-08T07:33:19.231Z,2.00
2023-10-08T07:37:46.247Z,3.38
2023-10-08T07:42:12.184Z,3.80
2023-10-08T07:46:37.845Z,3.17
2023-10-08T07:51:04.006Z,3.85
2023-10-08T07:55:29.354Z,2.35
2023-10-08T07:59:56.353Z,2.60
2023-10-08T08:04:24.829Z,4.57
2023-10-08T08:08:50.436Z,4.88
2023-10-08T08:13:21.565Z,2.97
2023-10-08T08:17:49.453Z,1.88
2023-10-08T08:22:32.257Z,7.50
2023-10-08T08:27:12.396Z,1.80
2023-10-08T08:31:38.009Z,1.65
2023-10-08T08:36:06.811Z,3.00
2023-10-08T08:40:32.067Z,3.28
2023-10-08T08:45:01.057Z,5.20
2023-10-08T08:49:28.353Z,3.00
2023-10-08T08:53:53.953Z,4.57
2023-10-08T08:58:19.922Z,4.40
2023-10-08T09:02:48.591Z,3.50
2023-10-08T09:07:15.146Z,3.50
2023-10-08T09:11:44.266Z,5.05
2023-10-08T09:16:13.840Z,4.82
2023-10-08T09:20:45.629Z,4.97
2023-10-08T09:25:11.193Z,4.10
2023-10-08T09:29:43.273Z,4.63
2023-10-08T09:34:08.734Z,3.22
2023-10-08T09:38:35.055Z,2.60
2023-10-08T09:43:00.669Z,3.33
2023-10-08T09:47:28.179Z,3.80
2023-10-08T09:51:54.670Z,2.22
2023-10-08T09:56:21.543Z,4.50
2023-10-08T10:00:49.998Z,3.00
2023-10-08T10:05:25.292Z,2.78
2023-10-08T10:09:54.681Z,2.95
2023-10-08T10:14:23.548Z,2.78
2023-10-08T10:18:58.184Z,2.72
2023-10-08T10:23:44.363Z,2.10
2023-10-08T10:28:11.324Z,3.55
2023-10-08T10:32:37.440Z,1.58
2023-10-08T10:37:20.424Z,4.18
2023-10-08T10:41:47.210Z,1.55
2023-10-08T10:46:30.943Z,3.20
2023-10-08T10:51:05.554Z,3.95
2023-10-08T10:55:33.545Z,1.92
2023-10-08T11:00:19.749Z,1.00
2023-10-08T11:04:51.021Z,3.17
2023-10-08T11:09:36.801Z,1.63
2023-10-08T11:14:02.482Z,1.55
2023-10-08T11:18:31.385Z,2.53
2023-10-08T11:22:59.582Z,1.15
2023-10-08T11:27:34.541Z,1.50
2023-10-08T11:32:02.054Z,3.20
2023-10-08T11:36:29.737Z,1.25
2023-10-08T11:40:58.833Z,1.88
2023-10-08T11:45:27.895Z,2.53
2023-10-08T11:50:10.114Z,1.17
2023-10-08T11:54:35.466Z,1.17
2023-10-08T11:59:09.868Z,4.32
2023-10-08T12:03:36.330Z,2.33
2023-10-08T12:08:01.956Z,0.98
2023-10-08T12:12:28.914Z,1.45
2023-10-08T12:16:54.483Z,3.10
2023-10-08T12:21:21.058Z,1.67
2023-10-08T12:25:53.629Z,3.90
2023-10-08T12:30:19.317Z,0.85
2023-10-08T12:34:44.534Z,1.58
2023-10-08T12:39:16.336Z,1.50
2023-10-08T12:43:46.206Z,2.20
2023-10-08T12:48:15.235Z,2.47
2023-10-08T12:52:48.291Z,1.45
2023-10-08T12:57:17.506Z,2.08
2023-10-08T13:01:44.932Z,0.73
2023-10-08T13:06:23.456Z,1.27
2023-10-08T13:10:49.087Z,4.90
2023-10-08T13:15:14.733Z,1.42
2023-10-08T13:19:40.241Z,2.15
2023-10-08T13:24:10.021Z,1.35
2023-10-08T13:28:37.325Z,3.70
2023-10-08T13:33:02.875Z,0.60
2023-10-08T13:37:28.397Z,0.95
2023-10-08T13:41:56.129Z,2.78
2023-10-08T13:46:26.321Z,1.95
2023-10-08T13:50:52.244Z,0.73
2023-10-08T13:55:20.275Z,0.40
2023-10-08T13:59:47.390Z,0.65
2023-10-08T14:04:18.969Z,1.80
2023-10-08T14:08:52.566Z,0.60
2023-10-08T14:13:20.959Z,0.75
2023-10-08T14:17:49.929Z,0.50
2023-10-08T14:22:16.158Z,0.85
2023-10-08T14:26:43.813Z,0.20
2023-10-08T14:31:10.063Z,0.55
2023-10-08T14:35:54.075Z,1.05
2023-10-08T14:40:37.817Z,0.60
2023-10-08T14:45:04.200Z,0.70
2023-10-08T14:49:29.843Z,1.20
2023-10-08T14:53:55.261Z,1.60
2023-10-08T14:58:20.964Z,1.25
2023-10-08T15:02:46.540Z,0.70
2023-10-08T15:07:12.497Z,1.52
2023-10-08T15:11:38.063Z,0.77
2023-10-08T15:16:05.540Z,0.77
2023-10-08T15:20:33.418Z,0.73
2023-10-08T15:24:58.999Z,2.50
2023-10-08T15:29:27.485Z,0.50
2023-10-08T15:33:54.989Z,1.27
2023-10-08T15:38:20.092Z,1.00
2023-10-08T15:42:52.514Z,1.60
2023-10-08T15:47:18.624Z,0.75
2023-10-08T15:51:44.356Z,1.42
2023-10-08T15:56:09.844Z,1.17
2023-10-08T16:00:35.309Z,0.20
2023-10-08T16:05:00.872Z,2.47
2023-10-08T16:09:26.541Z,5.15
2023-10-08T16:13:52.185Z,3.08
2023-10-08T16:18:19.061Z,2.13
2023-10-08T16:22:49.050Z,5.88
2023-10-08T16:27:16.151Z,4.15
2023-10-08T16:31:44.581Z,3.53
2023-10-08T16:36:10.965Z,5.05
2023-10-08T16:40:36.645Z,2.25
2023-10-08T16:45:03.777Z,4.88
2023-10-08T16:49:30.301Z,1.55
2023-10-08T16:53:55.861Z,3.30
2023-10-08T16:58:21.555Z,4.53
2023-10-08T17:02:46.952Z,2.90
2023-10-08T17:07:12.331Z,2.00
2023-10-08T17:11:38.503Z,3.72
2023-10-08T17:16:06.567Z,3.00
2023-10-08T17:20:31.992Z,2.88
2023-10-08T17:24:58.780Z,3.33
2023-10-08T17:29:24.291Z,3.17
2023-10-08T17:33:49.776Z,5.90
2023-10-08T17:38:15.434Z,7.00
2023-10-08T17:42:42.749Z,4.78
2023-10-08T17:47:10.653Z,4.03
2023-10-08T17:51:36.289Z,2.90
2023-10-08T17:56:01.806Z,4.03
2023-10-08T18:00:28.846Z,2.85
2023-10-08T18:04:54.251Z,2.42
2023-10-08T18:09:21.192Z,6.38
2023-10-08T18:13:51.367Z,4.40
2023-10-08T18:18:16.927Z,4.47
2023-10-08T18:22:42.373Z,3.42
2023-10-08T18:27:09.247Z,1.52
2023-10-08T18:31:37.037Z,1.55
2023-10-08T18:36:11.008Z,3.65
2023-10-08T18:40:38.645Z,4.95
2023-10-08T18:45:06.493Z,3.58
2023-10-08T18:49:32.847Z,3.83
2023-10-08T18:53:58.840Z,4.10
2023-10-08T18:58:24.023Z,3.05
2023-10-08T19:02:50.756Z,4.25
2023-10-08T19:07:16.067Z,3.47
2023-10-08T19:11:42.101Z,4.07
2023-10-08T19:16:09.597Z,3.42
2023-10-08T19:20:39.162Z,2.28
2023-10-08T19:25:05.101Z,5.55
2023-10-08T19:29:30.734Z,3.05
2023-10-08T19:33:56.905Z,5.65
2023-10-08T19:38:23.195Z,1.98
2023-10-08T19:42:49.276Z,5.28
2023-10-08T19:47:15.405Z,1.60
2023-10-08T19:51:41.430Z,6.00
2023-10-08T19:56:12.797Z,2.08
2023-10-08T20:00:38.909Z,3.08
2023-10-08T20:05:04.673Z,9.65
2023-10-08T20:09:30.218Z,6.90
2023-10-08T20:13:55.903Z,12.25
2023-10-08T20:18:22.333Z,2.88
2023-10-08T20:22:53.642Z,2.42
2023-10-08T20:27:19.026Z,4.90
2023-10-08T20:31:46.236Z,3.97
2023-10-08T20:36:12.206Z,2.70
2023-10-08T20:40:41.689Z,4.07
2023-10-08T20:45:10.925Z,3.47
2023-10-08T20:49:38.372Z,4.78
2023-10-08T20:54:04.426Z,2.97
2023-10-08T20:58:30.143Z,5.93
2023-10-08T21:02:57.574Z,4.40
2023-10-08T21:07:22.704Z,5.07
2023-10-08T21:11:48.252Z,1.98
2023-10-08T21:16:14.602Z,2.85
2023-10-08T21:20:39.901Z,2.85
2023-10-08T21:25:09.912Z,6.93
2023-10-08T21:29:35.176Z,4.15
2023-10-08T21:34:00.812Z,4.22
2023-10-08T21:38:26.386Z,8.52
2023-10-08T21:42:53.042Z,3.42
2023-10-08T21:47:18.471Z,3.17
2023-10-08T21:51:44.829Z,6.18
2023-10-08T21:56:10.281Z,5.65
2023-10-08T22:00:56.003Z,8.30
2023-10-08T22:05:23.232Z,5.32
2023-10-08T22:09:49.133Z,4.55
2023-10-08T22:14:19.859Z,3.42
2023-10-08T22:18:52.148Z,5.82
2023-10-08T22:23:22.118Z,7.72
2023-10-08T22:27:50.837Z,8.68
2023-10-08T22:32:17.036Z,5.68
2023-10-08T22:36:53.320Z,7.22
2023-10-08T22:41:20.259Z,3.85
2023-10-08T22:45:51.835Z,5.60
2023-10-08T22:50:35.397Z,11.10
2023-10-08T22:55:02.324Z,7.22
2023-10-08T22:59:30.895Z,8.55
2023-10-08T23:03:57.403Z,10.05
2023-10-08T23:08:24.079Z,7.30
2023-10-08T23:12:50.503Z,6.75
2023-10-08T23:17:16.309Z,6.88
2023-10-08T23:21:45.829Z,8.48
2023-10-08T23:26:14.428Z,8.80
2023-10-08T23:30:40.261Z,11.60
2023-10-08T23:35:17.678Z,11.77
2023-10-08T23:39:43.257Z,17.17
2023-10-08T23:44:13.450Z,12.38
2023-10-08T23:48:54.788Z,14.45
2023-10-08T23:53:30.299Z,22.23
2023-10-08T23:58:09.859Z,22.00
